Time;durP1;ratioP1;P1;durP2;ratioP2;P2;SDS_P1;SDS_P2;PMS_P1;PMS_P2;Temp;Humidity;BMP_temperature;BMP_pressure;BME280_temperature;BME280_humidity;BME280_pressure;Samples;Min_cycle;Max_cycle;Signal;HPM_P1;HPM_P2
2023/12/26 00:01:27;;;;;;;1.75;0.95;;;10.60;93.10;;;;;;4894269;29;20055;-79
2023/12/26 00:03:53;;;;;;;1.75;0.75;;;10.50;93.10;;;;;;4892045;29;20076;-79
2023/12/26 00:06:20;;;;;;;1.92;0.98;;;10.50;93.10;;;;;;4897381;29;20073;-79
2023/12/26 00:08:46;;;;;;;2.47;0.95;;;10.60;93.10;;;;;;4876666;29;20389;-79
2023/12/26 00:11:12;;;;;;;2.10;1.00;;;10.60;93.10;;;;;;4877396;29;20037;-79
2023/12/26 00:13:38;;;;;;;2.03;1.20;;;10.60;93.20;;;;;;4877278;29;20055;-78
2023/12/26 00:16:04;;;;;;;2.20;1.40;;;10.60;93.20;;;;;;4881612;29;20048;-79
2023/12/26 00:18:29;;;;;;;2.28;1.20;;;10.60;93.20;;;;;;4888266;29;20036;-79
2023/12/26 00:20:55;;;;;;;1.15;0.90;;;10.60;93.20;;;;;;4899309;29;20492;-79
2023/12/26 00:23:20;;;;;;;2.05;0.75;;;10.60;93.20;;;;;;4873898;29;20560;-79
2023/12/26 00:25:46;;;;;;;0.93;0.70;;;10.60;93.20;;;;;;4896297;29;20068;-79
2023/12/26 00:28:14;;;;;;;1.67;1.00;;;10.60;93.30;;;;;;4879900;29;20059;-79
2023/12/26 00:30:40;;;;;;;3.15;1.17;;;10.60;93.30;;;;;;4873209;29;20498;-79
2023/12/26 00:33:06;;;;;;;2.05;1.27;;;10.60;93.30;;;;;;4878691;29;20445;-79
2023/12/26 00:35:31;;;;;;;2.80;1.42;;;10.60;93.30;;;;;;4876053;29;20048;-79
2023/12/26 00:38:01;;;;;;;1.48;0.80;;;10.60;93.40;;;;;;4880123;29;20060;-79
2023/12/26 00:40:27;;;;;;;2.97;1.00;;;10.60;93.40;;;;;;4892165;29;20420;-79
2023/12/26 00:42:52;;;;;;;1.52;0.90;;;10.70;93.40;;;;;;4874724;29;20128;-79
2023/12/26 00:45:22;;;;;;;1.88;0.70;;;10.60;93.40;;;;;;4876425;29;20040;-79
2023/12/26 00:47:50;;;;;;;1.40;0.50;;;10.60;93.40;;;;;;4874553;29;20416;-79
2023/12/26 00:50:16;;;;;;;0.80;0.30;;;10.60;93.40;;;;;;4879833;29;20507;-79
2023/12/26 00:52:43;;;;;;;1.15;0.40;;;10.70;93.40;;;;;;4873013;29;20056;-79
2023/12/26 00:55:09;;;;;;;1.27;0.40;;;10.60;93.40;;;;;;4875843;29;20068;-79
2023/12/26 00:57:35;;;;;;;2.22;0.40;;;10.60;93.30;;;;;;4896631;29;20075;-79
2023/12/26 01:00:04;;;;;;;1.20;0.30;;;10.60;93.30;;;;;;4879547;29;20506;-79
2023/12/26 01:02:30;;;;;;;1.48;0.30;;;10.70;93.30;;;;;;4876359;29;20048;-79
2023/12/26 01:04:56;;;;;;;2.38;0.50;;;10.60;93.30;;;;;;4876738;29;20041;-79
2023/12/26 01:07:22;;;;;;;1.25;0.38;;;10.60;93.30;;;;;;4896917;29;20057;-79
2023/12/26 01:09:47;;;;;;;2.00;0.45;;;10.60;93.20;;;;;;4879814;29;20048;-79
2023/12/26 01:12:13;;;;;;;2.33;0.63;;;10.60;93.20;;;;;;4873954;29;20496;-79
2023/12/26 01:14:40;;;;;;;2.30;0.50;;;10.60;93.20;;;;;;4875230;29;20037;-79
2023/12/26 01:17:06;;;;;;;3.15;0.40;;;10.60;93.10;;;;;;4877717;29;20052;-79
2023/12/26 01:19:31;;;;;;;2.70;0.52;;;10.60;93.10;;;;;;4895217;29;20044;-79
2023/12/26 01:21:57;;;;;;;2.10;0.70;;;10.60;93.00;;;;;;4892812;29;20198;-79
2023/12/26 01:24:23;;;;;;;2.22;0.55;;;10.60;93.00;;;;;;4892593;29;20496;-79
2023/12/26 01:26:49;;;;;;;3.80;0.80;;;10.50;93.00;;;;;;4875680;29;20399;-79
2023/12/26 01:29:14;;;;;;;3.75;1.15;;;10.50;92.90;;;;;;4889880;29;20047;-79
2023/12/26 01:31:40;;;;;;;2.88;0.50;;;10.50;92.90;;;;;;4860892;29;20048;-79
2023/12/26 01:34:06;;;;;;;2.33;0.65;;;10.50;92.90;;;;;;4874063;29;20052;-79
2023/12/26 01:36:32;;;;;;;5.05;0.75;;;10.50;92.90;;;;;;4862734;29;20036;-79
2023/12/26 01:38:58;;;;;;;4.57;0.73;;;10.50;92.80;;;;;;4873375;29;20064;-78
2023/12/26 01:41:24;;;;;;;4.80;1.00;;;10.50;92.80;;;;;;4876175;29;20076;-79
2023/12/26 01:43:50;;;;;;;4.47;1.08;;;10.50;92.80;;;;;;4874017;29;20047;-78
2023/12/26 01:46:16;;;;;;;6.32;1.02;;;10.50;92.80;;;;;;4880602;29;20048;-79
2023/12/26 01:48:45;;;;;;;6.45;0.80;;;10.50;92.70;;;;;;4897045;29;20040;-79
2023/12/26 01:51:13;;;;;;;5.82;1.10;;;10.50;92.70;;;;;;4875465;29;20072;-79
2023/12/26 01:53:40;;;;;;;7.55;1.30;;;10.50;92.70;;;;;;4877275;29;20051;-79
2023/12/26 01:56:10;;;;;;;3.65;0.73;;;10.50;92.70;;;;;;4877984;29;20045;-79
2023/12/26 01:58:37;;;;;;;6.22;1.55;;;10.50;92.70;;;;;;4890036;29;20047;-79
2023/12/26 02:01:04;;;;;;;9.52;1.20;;;10.50;92.60;;;;;;4873911;29;20040;-79
2023/12/26 02:03:30;;;;;;;7.22;1.00;;;10.50;92.60;;;;;;4870949;29;20121;-78
2023/12/26 02:05:59;;;;;;;6.53;0.90;;;10.50;92.60;;;;;;4892023;29;20060;-78
2023/12/26 02:08:24;;;;;;;6.35;0.93;;;10.50;92.60;;;;;;4877225;29;20492;-78
2023/12/26 02:10:50;;;;;;;6.35;1.27;;;10.50;92.50;;;;;;4874245;29;20060;-78
2023/12/26 02:13:16;;;;;;;8.80;1.17;;;10.50;92.50;;;;;;4893216;29;20033;-78
2023/12/26 02:15:42;;;;;;;6.75;0.95;;;10.50;92.50;;;;;;4870248;29;20064;-78
2023/12/26 02:18:09;;;;;;;6.15;1.52;;;10.40;92.50;;;;;;4868852;29;20033;-78
2023/12/26 02:20:34;;;;;;;7.85;1.40;;;10.40;92.50;;;;;;4855055;29;20049;-79
2023/12/26 02:23:00;;;;;;;10.05;1.48;;;10.40;92.50;;;;;;4871046;29;20124;-79
2023/12/26 02:25:26;;;;;;;9.18;1.35;;;10.50;92.60;;;;;;4871055;29;20132;-78
2023/12/26 02:27:52;;;;;;;12.65;1.58;;;10.40;92.50;;;;;;4872501;29;20040;-78
2023/12/26 02:30:19;;;;;;;8.90;1.50;;;10.50;92.60;;;;;;4875253;29;20033;-78
2023/12/26 02:32:46;;;;;;;9.48;1.95;;;10.40;92.60;;;;;;4867132;29;20137;-78
2023/12/26 02:35:12;;;;;;;12.30;2.13;;;10.40;92.60;;;;;;4873755;29;20089;-78
2023/12/26 02:37:38;;;;;;;5.72;1.85;;;10.40;92.50;;;;;;4869067;29;20048;-78
2023/12/26 02:40:05;;;;;;;4.97;1.30;;;10.40;92.60;;;;;;4877582;29;20116;-78
2023/12/26 02:42:31;;;;;;;14.40;2.78;;;10.40;92.50;;;;;;4868400;29;20041;-79
2023/12/26 02:44:57;;;;;;;8.25;1.58;;;10.40;92.50;;;;;;4868321;29;20409;-79
2023/12/26 02:47:23;;;;;;;7.43;1.48;;;10.40;92.50;;;;;;4869540;29;20052;-79
2023/12/26 02:49:49;;;;;;;7.95;1.30;;;10.40;92.50;;;;;;4870123;29;20042;-79
2023/12/26 02:52:15;;;;;;;9.93;2.03;;;10.40;92.50;;;;;;4872192;29;20045;-79
2023/12/26 02:54:41;;;;;;;10.02;2.10;;;10.50;92.50;;;;;;4874319;29;20416;-78
2023/12/26 02:57:06;;;;;;;5.93;1.33;;;10.50;92.40;;;;;;4871372;29;20104;-78
2023/12/26 02:59:32;;;;;;;5.80;1.40;;;10.40;92.40;;;;;;4871914;29;20069;-78
2023/12/26 03:01:58;;;;;;;6.97;2.10;;;10.40;92.30;;;;;;4869615;29;20052;-79
2023/12/26 03:04:24;;;;;;;8.63;1.80;;;10.40;92.30;;;;;;4870935;29;20442;-78
2023/12/26 03:06:50;;;;;;;9.02;1.70;;;10.50;92.30;;;;;;4873678;29;20136;-78
2023/12/26 03:09:15;;;;;;;8.20;1.35;;;10.40;92.30;;;;;;4869321;29;20119;-78
2023/12/26 03:11:41;;;;;;;5.93;1.38;;;10.50;92.30;;;;;;4852860;29;20473;-78
2023/12/26 03:14:07;;;;;;;7.45;1.73;;;10.40;92.20;;;;;;4868670;29;20501;-78
2023/12/26 03:16:32;;;;;;;5.60;1.33;;;10.40;92.20;;;;;;4890421;29;20051;-78
2023/12/26 03:18:58;;;;;;;6.97;1.38;;;10.40;92.20;;;;;;4894316;29;20501;-78
2023/12/26 03:21:24;;;;;;;3.95;0.90;;;10.40;92.20;;;;;;4879373;29;20067;-79
2023/12/26 03:23:51;;;;;;;5.10;0.70;;;10.40;92.10;;;;;;4877470;29;20045;-79
2023/12/26 03:26:16;;;;;;;4.70;0.93;;;10.40;91.50;;;;;;4876324;29;20048;-78
2023/12/26 03:28:42;;;;;;;5.82;0.85;;;10.30;91.10;;;;;;4893012;29;20119;-78
2023/12/26 03:31:08;;;;;;;3.25;0.93;;;10.30;90.70;;;;;;4881365;29;20048;-78
2023/12/26 03:33:35;;;;;;;4.03;1.50;;;10.20;90.20;;;;;;4881054;29;20040;-78
2023/12/26 03:36:01;;;;;;;7.03;1.30;;;10.20;90.00;;;;;;4896677;29;20041;-79
2023/12/26 03:38:27;;;;;;;3.75;1.02;;;10.20;90.10;;;;;;4887378;29;20041;-79
2023/12/26 03:40:52;;;;;;;4.32;1.30;;;10.10;90.00;;;;;;4877968;29;20076;-79
2023/12/26 03:43:18;;;;;;;6.28;1.42;;;10.10;89.80;;;;;;4879412;29;20041;-79
2023/12/26 03:45:49;;;;;;;12.30;1.60;;;10.10;89.70;;;;;;4875256;29;20091;-78
2023/12/26 03:48:15;;;;;;;6.07;1.38;;;10.10;89.70;;;;;;4891682;29;20123;-78
2023/12/26 03:50:40;;;;;;;6.05;1.25;;;10.00;89.80;;;;;;4878998;29;20334;-78
2023/12/26 03:53:06;;;;;;;9.85;1.95;;;10.00;89.80;;;;;;4876549;29;20036;-78
2023/12/26 03:55:32;;;;;;;8.27;1.25;;;10.00;89.60;;;;;;4873131;29;20409;-79
2023/12/26 03:57:58;;;;;;;8.18;1.33;;;10.00;88.80;;;;;;4891777;29;20420;-79
2023/12/26 04:00:24;;;;;;;7.53;1.83;;;9.90;88.20;;;;;;4893018;29;20048;-79
2023/12/26 04:02:50;;;;;;;10.73;2.20;;;9.90;87.30;;;;;;4875412;29;20040;-79
2023/12/26 04:05:15;;;;;;;8.38;2.03;;;9.80;86.60;;;;;;4875259;29;20040;-78
2023/12/26 04:07:41;;;;;;;9.15;1.75;;;9.70;86.10;;;;;;4891438;29;20041;-78
2023/12/26 04:10:07;;;;;;;9.20;1.67;;;9.70;86.10;;;;;;4875388;29;20041;-78
2023/12/26 04:12:34;;;;;;;10.00;2.00;;;9.60;85.80;;;;;;4878134;29;20464;-78
2023/12/26 04:15:00;;;;;;;10.57;2.00;;;9.60;85.70;;;;;;4872733;29;20524;-78
2023/12/26 04:17:26;;;;;;;11.00;2.15;;;9.60;85.80;;;;;;4893985;29;20041;-78
2023/12/26 04:19:52;;;;;;;4.82;1.48;;;9.50;86.00;;;;;;4878947;29;20045;-78
2023/12/26 04:22:17;;;;;;;18.65;2.95;;;9.50;86.00;;;;;;4889722;29;20043;-78
2023/12/26 04:24:43;;;;;;;9.70;1.38;;;9.50;85.80;;;;;;4891672;29;20072;-78
2023/12/26 04:27:09;;;;;;;9.15;1.80;;;9.50;85.80;;;;;;4878913;29;20040;-78
2023/12/26 04:29:34;;;;;;;13.00;2.05;;;9.40;85.70;;;;;;4875534;29;20060;-78
2023/12/26 04:32:00;;;;;;;11.50;1.80;;;9.40;85.80;;;;;;4857024;29;20149;-78
2023/12/26 04:34:26;;;;;;;8.35;2.05;;;9.40;85.90;;;;;;4873746;29;20041;-78
2023/12/26 04:36:51;;;;;;;11.70;1.67;;;9.30;85.80;;;;;;4894674;29;20041;-78
2023/12/26 04:39:17;;;;;;;11.10;1.90;;;9.30;85.90;;;;;;4892420;29;20560;-78
2023/12/26 04:41:46;;;;;;;8.05;1.55;;;9.30;86.00;;;;;;4871996;29;20557;-78
2023/12/26 04:44:11;;;;;;;8.02;1.73;;;9.20;86.10;;;;;;4872602;29;20079;-78
2023/12/26 04:46:37;;;;;;;7.45;1.17;;;9.30;86.50;;;;;;4874661;29;20068;-78
2023/12/26 04:49:03;;;;;;;9.77;1.38;;;9.20;86.70;;;;;;4888898;29;20059;-78
2023/12/26 04:51:30;;;;;;;6.75;1.45;;;9.20;87.40;;;;;;4894817;29;20037;-78
2023/12/26 04:53:56;;;;;;;8.07;1.85;;;9.20;87.20;;;;;;4877180;29;20049;-78
2023/12/26 04:56:22;;;;;;;8.20;1.45;;;9.20;87.40;;;;;;4888743;29;20140;-78
2023/12/26 04:58:49;;;;;;;10.00;2.63;;;9.20;87.60;;;;;;4874333;29;20044;-78
2023/12/26 05:01:16;;;;;;;9.82;1.85;;;9.20;87.70;;;;;;4874995;29;20453;-77
2023/12/26 05:03:43;;;;;;;7.95;1.55;;;9.20;88.10;;;;;;4874308;29;20051;-77
2023/12/26 05:06:09;;;;;;;8.00;1.17;;;9.20;87.80;;;;;;4890489;29;20063;-78
2023/12/26 05:08:39;;;;;;;11.18;1.75;;;9.20;87.90;;;;;;4875969;29;20045;-78
2023/12/26 05:11:07;;;;;;;11.00;1.95;;;9.20;88.10;;;;;;4891104;29;20041;-78
2023/12/26 05:13:33;;;;;;;8.68;2.05;;;9.20;88.30;;;;;;4872611;29;20036;-78
2023/12/26 05:16:03;;;;;;;8.93;1.73;;;9.10;88.40;;;;;;4872234;29;20152;-78
2023/12/26 05:18:29;;;;;;;6.43;1.38;;;9.20;88.70;;;;;;4889996;29;20032;-78
2023/12/26 05:20:54;;;;;;;10.02;2.25;;;9.10;88.70;;;;;;4890730;29;20043;-78
2023/12/26 05:23:20;;;;;;;9.15;1.85;;;9.10;88.80;;;;;;4877540;29;20123;-78
2023/12/26 05:25:46;;;;;;;5.97;1.80;;;9.10;88.70;;;;;;4888609;29;20097;-78
2023/12/26 05:28:12;;;;;;;7.80;2.13;;;9.10;88.80;;;;;;4894184;29;20067;-77
2023/12/26 05:30:37;;;;;;;6.82;1.60;;;9.10;88.70;;;;;;4888876;29;20079;-78
2023/12/26 05:33:03;;;;;;;7.45;2.00;;;9.10;88.80;;;;;;4888653;29;20033;-78
2023/12/26 05:35:29;;;;;;;7.85;1.50;;;9.20;88.80;;;;;;4893555;29;20499;-78
2023/12/26 05:37:55;;;;;;;11.52;2.03;;;9.20;89.00;;;;;;4870625;29;20045;-78
2023/12/26 05:40:21;;;;;;;7.25;1.48;;;9.20;88.90;;;;;;4875899;29;20048;-78
2023/12/26 05:42:47;;;;;;;8.82;1.38;;;9.20;88.90;;;;;;4873806;29;20390;-78
2023/12/26 05:45:13;;;;;;;9.10;1.70;;;9.20;88.90;;;;;;4871755;29;20123;-78
2023/12/26 05:47:39;;;;;;;9.07;1.75;;;9.20;89.00;;;;;;4874558;29;20155;-78
2023/12/26 05:50:05;;;;;;;6.63;1.30;;;9.20;89.00;;;;;;4889401;29;20488;-78
2023/12/26 05:52:31;;;;;;;8.93;1.63;;;9.20;89.10;;;;;;4873378;29;20051;-78
2023/12/26 05:54:56;;;;;;;7.13;1.83;;;9.20;89.00;;;;;;4870542;29;20037;-78
2023/12/26 05:57:23;;;;;;;7.47;1.05;;;9.20;88.90;;;;;;4876754;29;20048;-78
2023/12/26 05:59:49;;;;;;;9.63;1.65;;;9.20;88.90;;;;;;4870998;29;20045;-78
2023/12/26 06:02:15;;;;;;;8.73;1.50;;;9.20;88.80;;;;;;4875300;29;20088;-78
2023/12/26 06:04:40;;;;;;;6.82;2.15;;;9.30;88.90;;;;;;4872315;29;20060;-78
2023/12/26 06:07:07;;;;;;;7.80;1.80;;;9.30;88.80;;;;;;4872969;29;20119;-78
2023/12/26 06:09:33;;;;;;;11.15;2.00;;;9.30;88.90;;;;;;4890219;29;20051;-78
2023/12/26 06:11:58;;;;;;;9.98;1.65;;;9.30;88.70;;;;;;4893680;29;20032;-78
2023/12/26 06:14:25;;;;;;;7.20;1.45;;;9.30;88.60;;;;;;4874167;29;20151;-78
2023/12/26 06:16:50;;;;;;;9.20;1.85;;;9.40;88.50;;;;;;4871556;29;20052;-78
2023/12/26 06:19:16;;;;;;;10.70;1.85;;;9.40;88.40;;;;;;4873390;29;20567;-78
2023/12/26 06:21:42;;;;;;;8.27;2.33;;;9.40;88.30;;;;;;4878266;29;20041;-78
2023/12/26 06:24:08;;;;;;;8.90;1.90;;;9.40;88.20;;;;;;4889915;29;20037;-78
2023/12/26 06:26:34;;;;;;;14.05;2.08;;;9.40;88.10;;;;;;4870368;29;20044;-78
2023/12/26 06:29:00;;;;;;;10.07;2.08;;;9.40;88.10;;;;;;4857220;29;20036;-78
2023/12/26 06:31:25;;;;;;;9.32;2.08;;;9.40;88.00;;;;;;4889981;29;20261;-78
2023/12/26 06:33:51;;;;;;;10.60;2.63;;;9.40;87.80;;;;;;4873115;29;20504;-78
2023/12/26 06:36:17;;;;;;;9.80;2.28;;;9.40;87.80;;;;;;4872923;29;20092;-78
2023/12/26 06:38:43;;;;;;;13.10;2.65;;;9.40;87.80;;;;;;4889754;29;20072;-78
2023/12/26 06:41:10;;;;;;;15.98;2.65;;;9.40;87.90;;;;;;4876913;29;20174;-78
2023/12/26 06:43:36;;;;;;;8.40;1.63;;;9.40;87.80;;;;;;4869874;29;20124;-78
2023/12/26 06:46:06;;;;;;;8.38;1.80;;;9.40;87.80;;;;;;4875822;29;20049;-78
2023/12/26 06:48:31;;;;;;;9.63;1.98;;;9.40;87.90;;;;;;4872900;29;20519;-78
2023/12/26 06:50:57;;;;;;;13.40;2.53;;;9.40;87.90;;;;;;4875607;29;20136;-78
2023/12/26 06:53:23;;;;;;;10.60;3.15;;;9.40;87.90;;;;;;4880542;29;20073;-78
2023/12/26 06:55:48;;;;;;;12.00;2.45;;;9.40;87.80;;;;;;4892776;29;20150;-78
2023/12/26 06:58:14;;;;;;;10.32;2.55;;;9.40;87.60;;;;;;4858047;29;20684;-78
2023/12/26 07:00:40;;;;;;;12.68;1.92;;;9.40;87.50;;;;;;4896977;29;20036;-78
2023/12/26 07:03:05;;;;;;;7.47;1.80;;;9.40;87.40;;;;;;4890958;29;20043;-78
2023/12/26 07:05:31;;;;;;;15.68;2.72;;;9.40;87.40;;;;;;4891934;29;20093;-78
2023/12/26 07:07:56;;;;;;;14.38;2.30;;;9.40;87.30;;;;;;4881469;29;20059;-78
2023/12/26 07:10:22;;;;;;;14.88;1.83;;;9.40;87.10;;;;;;4877251;29;20075;-78
2023/12/26 07:12:48;;;;;;;12.18;2.58;;;9.30;86.90;;;;;;4864797;29;20044;-78
2023/12/26 07:15:13;;;;;;;11.57;2.53;;;9.30;86.70;;;;;;4874726;29;20056;-78
2023/12/26 07:17:39;;;;;;;9.32;2.50;;;9.30;87.10;;;;;;4893254;29;20048;-78
2023/12/26 07:20:08;;;;;;;12.35;2.45;;;9.30;86.80;;;;;;4874701;29;20488;-78
2023/12/26 07:22:34;;;;;;;8.13;2.03;;;9.30;86.60;;;;;;4893514;29;20041;-78
2023/12/26 07:25:00;;;;;;;13.60;2.08;;;9.30;86.60;;;;;;4874309;29;20077;-77
2023/12/26 07:27:25;;;;;;;10.10;2.20;;;9.30;86.50;;;;;;4892951;29;20141;-78
2023/12/26 07:29:51;;;;;;;13.88;2.75;;;9.30;86.30;;;;;;4895578;29;20044;-78
2023/12/26 07:32:19;;;;;;;15.38;2.00;;;9.30;86.20;;;;;;4876300;29;20036;-78
2023/12/26 07:34:46;;;;;;;10.30;2.58;;;9.20;86.20;;;;;;4890265;29;20116;-78
2023/12/26 07:37:12;;;;;;;12.77;2.47;;;9.20;86.30;;;;;;4896266;29;20116;-78
2023/12/26 07:39:37;;;;;;;11.18;2.08;;;9.20;86.30;;;;;;4890965;29;20051;-78
2023/12/26 07:42:03;;;;;;;9.85;1.73;;;9.20;86.40;;;;;;4891416;29;20092;-78
2023/12/26 07:44:29;;;;;;;11.45;2.85;;;9.20;86.40;;;;;;4892079;29;20044;-78
2023/12/26 07:46:54;;;;;;;10.93;2.33;;;9.20;86.30;;;;;;4894006;29;20408;-78
2023/12/26 07:49:20;;;;;;;11.52;2.30;;;9.20;86.20;;;;;;4871931;29;20544;-78
2023/12/26 07:51:46;;;;;;;12.10;2.38;;;9.20;86.30;;;;;;4892418;29;20049;-78
2023/12/26 07:54:12;;;;;;;16.33;2.83;;;9.20;86.50;;;;;;4873910;29;20078;-78
2023/12/26 07:56:38;;;;;;;13.95;2.33;;;9.20;86.30;;;;;;4878048;29;20476;-78
2023/12/26 07:59:04;;;;;;;18.42;2.28;;;9.20;86.40;;;;;;4896038;29;20037;-78
2023/12/26 08:01:31;;;;;;;8.75;2.15;;;9.10;86.40;;;;;;4894021;29;20104;-79
2023/12/26 08:03:57;;;;;;;16.75;2.88;;;9.10;86.40;;;;;;4889407;29;20041;-78
2023/12/26 08:06:26;;;;;;;18.98;2.40;;;9.20;86.60;;;;;;4876464;29;20048;-78
2023/12/26 08:08:52;;;;;;;12.07;2.17;;;9.10;86.50;;;;;;4876121;29;20044;-78
2023/12/26 08:11:19;;;;;;;14.25;2.50;;;9.10;86.50;;;;;;4893704;29;20099;-79
2023/12/26 08:13:44;;;;;;;10.65;1.90;;;9.10;86.50;;;;;;4892753;29;20509;-78
2023/12/26 08:16:10;;;;;;;11.75;2.35;;;9.10;86.70;;;;;;4892956;29;20137;-78
2023/12/26 08:18:36;;;;;;;11.80;2.35;;;9.10;86.60;;;;;;4891947;29;20421;-78
2023/12/26 08:21:03;;;;;;;15.60;2.50;;;9.10;86.50;;;;;;4896562;29;20040;-78
2023/12/26 08:23:28;;;;;;;12.80;2.85;;;9.10;86.40;;;;;;4895362;29;20041;-77
2023/12/26 08:25:55;;;;;;;14.57;3.20;;;9.10;86.30;;;;;;4876342;29;20040;-79
2023/12/26 08:28:20;;;;;;;10.82;2.28;;;9.10;86.30;;;;;;4879322;29;20399;-78
2023/12/26 08:30:47;;;;;;;11.82;2.10;;;9.10;86.10;;;;;;4860883;29;20040;-78
2023/12/26 08:33:16;;;;;;;15.88;2.28;;;9.00;86.20;;;;;;4876321;29;20086;-78
2023/12/26 08:35:42;;;;;;;14.77;2.55;;;9.00;86.20;;;;;;4874866;29;20036;-78
2023/12/26 08:38:08;;;;;;;11.35;1.90;;;9.00;86.30;;;;;;4879111;29;20056;-78
2023/12/26 08:40:33;;;;;;;13.02;2.50;;;9.00;86.30;;;;;;4900899;29;20164;-80
2023/12/26 08:42:59;;;;;;;12.45;2.80;;;9.00;86.20;;;;;;4885018;29;20045;-78
2023/12/26 08:45:25;;;;;;;9.57;1.98;;;9.00;86.20;;;;;;4869814;29;20048;-79
2023/12/26 08:47:52;;;;;;;20.42;3.95;;;8.90;86.00;;;;;;4885820;29;20596;-79
2023/12/26 08:50:19;;;;;;;16.92;3.03;;;8.90;86.00;;;;;;4862965;29;20060;-79
2023/12/26 08:52:45;;;;;;;14.27;2.47;;;8.90;86.10;;;;;;4876046;29;20473;-79
2023/12/26 08:55:11;;;;;;;13.57;2.78;;;8.90;86.20;;;;;;4889513;29;20091;-79
2023/12/26 08:57:36;;;;;;;9.05;2.03;;;8.80;86.20;;;;;;4878410;29;20044;-79
2023/12/26 09:00:04;;;;;;;12.50;2.80;;;8.80;86.20;;;;;;4878496;29;20049;-79
2023/12/26 09:02:29;;;;;;;13.45;2.33;;;8.80;86.30;;;;;;4900639;29;20083;-79
2023/12/26 09:04:55;;;;;;;13.38;2.30;;;8.70;86.30;;;;;;4885292;29;20061;-78
2023/12/26 09:07:20;;;;;;;15.70;3.20;;;8.70;86.30;;;;;;4874000;29;20063;-79
2023/12/26 09:09:46;;;;;;;12.75;2.67;;;8.70;86.30;;;;;;4878017;29;20040;-79
2023/12/26 09:12:12;;;;;;;12.82;2.72;;;8.70;86.40;;;;;;4877655;29;20131;-79
2023/12/26 09:14:38;;;;;;;13.05;2.97;;;8.60;86.40;;;;;;4872509;29;20408;-79
2023/12/26 09:17:03;;;;;;;11.25;2.40;;;8.60;86.50;;;;;;4877769;29;20185;-80
2023/12/26 09:19:29;;;;;;;15.30;3.60;;;8.60;86.70;;;;;;4874139;29;20176;-80
2023/12/26 09:21:55;;;;;;;12.30;3.08;;;8.60;86.80;;;;;;4877253;29;20059;-79
2023/12/26 09:24:21;;;;;;;15.38;2.78;;;8.60;86.80;;;;;;4876699;29;20048;-80
2023/12/26 09:26:47;;;;;;;16.17;2.75;;;8.60;86.90;;;;;;4895950;29;20055;-79
2023/12/26 09:29:12;;;;;;;12.77;2.28;;;8.50;86.90;;;;;;4874063;29;20084;-80
2023/12/26 09:31:38;;;;;;;15.57;2.83;;;8.50;86.90;;;;;;4872113;29;20049;-79
2023/12/26 09:34:04;;;;;;;15.55;3.72;;;8.50;87.10;;;;;;4883107;29;20092;-81
2023/12/26 09:36:31;;;;;;;14.20;2.40;;;8.50;87.20;;;;;;4887106;29;20067;-81
2023/12/26 09:38:56;;;;;;;12.15;2.45;;;8.50;87.30;;;;;;4873982;29;20441;-81
2023/12/26 09:41:24;;;;;;;14.43;2.60;;;8.50;87.20;;;;;;4883803;29;20076;-81
2023/12/26 09:43:50;;;;;;;13.95;3.08;;;8.50;87.10;;;;;;4885038;29;20048;-79
2023/12/26 09:46:16;;;;;;;11.80;2.67;;;8.50;86.90;;;;;;4878884;29;20055;-79
2023/12/26 09:48:42;;;;;;;14.32;2.42;;;8.40;86.80;;;;;;4862415;29;20095;-80
2023/12/26 09:51:12;;;;;;;14.57;2.63;;;8.40;86.70;;;;;;4875453;29;20419;-79
2023/12/26 09:53:43;;;;;;;14.73;2.03;;;8.40;86.50;;;;;;4897057;29;20145;-79
2023/12/26 09:56:10;;;;;;;12.18;2.50;;;8.40;86.50;;;;;;4893699;29;20404;-79
2023/12/26 09:58:42;;;;;;;13.20;2.13;;;8.40;86.30;;;;;;4890583;29;20036;-79
2023/12/26 10:01:13;;;;;;;14.02;2.65;;;8.30;86.10;;;;;;4874045;29;20051;-79
2023/12/26 10:03:39;;;;;;;20.85;3.53;;;8.30;86.00;;;;;;4875832;29;20051;-79
2023/12/26 10:06:06;;;;;;;15.73;3.40;;;8.30;86.30;;;;;;4876095;29;20040;-78
2023/12/26 10:08:32;;;;;;;13.82;3.58;;;8.30;86.60;;;;;;4880253;29;20075;-80
2023/12/26 10:10:58;;;;;;;13.88;2.70;;;8.30;87.00;;;;;;4866462;29;20405;-80
2023/12/26 10:13:23;;;;;;;16.67;2.63;;;8.30;87.20;;;;;;4895594;29;20049;-78
2023/12/26 10:15:49;;;;;;;17.50;2.88;;;8.40;87.40;;;;;;4893941;29;20056;-79
2023/12/26 10:18:16;;;;;;;17.30;3.10;;;8.40;87.40;;;;;;4883947;29;20056;-79
2023/12/26 10:20:42;;;;;;;15.00;2.97;;;8.50;87.40;;;;;;4880428;29;20094;-80
2023/12/26 10:23:08;;;;;;;12.63;2.33;;;8.50;87.40;;;;;;4895013;29;20052;-79
2023/12/26 10:25:34;;;;;;;14.10;3.08;;;8.50;87.30;;;;;;4872541;29;20044;-79
2023/12/26 10:28:00;;;;;;;17.42;3.63;;;8.60;87.10;;;;;;4876178;29;20040;-79
2023/12/26 10:30:26;;;;;;;10.80;2.00;;;8.60;87.00;;;;;;4893679;29;20282;-80
2023/12/26 10:33:02;;;;;;;13.90;2.80;;;8.70;86.90;;;;;;4883471;29;20536;-79
2023/12/26 10:35:28;;;;;;;16.23;2.78;;;8.70;86.70;;;;;;4875950;29;20040;-79
2023/12/26 10:37:56;;;;;;;14.93;2.75;;;8.80;86.70;;;;;;4876788;29;20043;-79
2023/12/26 10:40:22;;;;;;;15.23;3.30;;;8.80;86.60;;;;;;4880543;29;20052;-79
2023/12/26 10:42:51;;;;;;;14.40;2.70;;;8.80;86.40;;;;;;4874851;29;20037;-79
2023/12/26 10:45:20;;;;;;;12.30;2.78;;;8.90;86.20;;;;;;4874539;29;20041;-79
2023/12/26 10:47:51;;;;;;;15.48;3.13;;;8.90;86.00;;;;;;4872471;29;20056;-79
2023/12/26 10:50:18;;;;;;;15.13;3.65;;;8.90;85.60;;;;;;4876129;29;20049;-79
2023/12/26 10:53:16;;;;;;;14.80;2.92;;;8.90;85.40;;;;;;4877769;29;20440;-79
2023/12/26 10:55:45;;;;;;;12.02;2.80;;;9.00;85.20;;;;;;4887081;29;20124;-80
2023/12/26 10:58:23;;;;;;;12.45;2.95;;;9.00;85.20;;;;;;4883941;29;20047;-79
2023/12/26 13:52:23;;;;;;;6.50;1.05;;;9.20;86.00;;;;;;4891113;29;20049;-78
2023/12/26 13:54:49;;;;;;;8.10;1.35;;;9.20;86.30;;;;;;4873390;29;20044;-78
2023/12/26 13:57:15;;;;;;;10.50;1.17;;;9.20;86.10;;;;;;4893984;29;20032;-78
2023/12/26 13:59:40;;;;;;;5.35;1.30;;;9.10;86.00;;;;;;4891256;29;20151;-78
2023/12/26 14:02:09;;;;;;;6.13;1.17;;;9.00;85.80;;;;;;4891469;29;20167;-78
2023/12/26 14:04:34;;;;;;;4.82;0.80;;;9.00;85.70;;;;;;4896634;29;20063;-78
2023/12/26 14:07:00;;;;;;;8.57;1.23;;;9.00;85.60;;;;;;4898880;29;20487;-79
2023/12/26 14:09:26;;;;;;;7.57;1.30;;;8.90;85.40;;;;;;4893915;29;20045;-79
2023/12/26 14:11:51;;;;;;;5.93;0.80;;;8.90;85.40;;;;;;4893263;29;20523;-79
2023/12/26 14:14:17;;;;;;;4.15;0.80;;;8.90;85.40;;;;;;4898888;29;20041;-80
2023/12/26 14:16:43;;;;;;;5.53;0.70;;;8.80;85.20;;;;;;4879027;29;20067;-80
2023/12/26 14:19:08;;;;;;;4.40;0.85;;;8.80;85.30;;;;;;4898452;29;20522;-80
2023/12/26 14:21:34;;;;;;;5.20;0.90;;;8.80;85.20;;;;;;4877563;29;20071;-79
2023/12/26 14:23:59;;;;;;;6.50;1.42;;;8.80;85.20;;;;;;4882265;29;20044;-80
2023/12/26 14:26:26;;;;;;;4.82;0.80;;;8.70;85.00;;;;;;4883928;29;20037;-79
2023/12/26 14:28:52;;;;;;;10.93;2.08;;;8.70;85.10;;;;;;4861057;29;20044;-79
2023/12/26 14:31:18;;;;;;;3.85;0.85;;;8.70;85.20;;;;;;4877115;29;20040;-80
2023/12/26 14:33:44;;;;;;;4.90;1.50;;;8.80;85.20;;;;;;4880310;29;20059;-79
2023/12/26 14:36:10;;;;;;;8.10;0.90;;;8.60;85.10;;;;;;4880224;29;20048;-79
2023/12/26 14:38:36;;;;;;;7.28;0.90;;;8.60;85.00;;;;;;4877616;29;20068;-79
2023/12/26 14:41:01;;;;;;;4.80;0.80;;;8.70;85.00;;;;;;4892678;29;20048;-80
2023/12/26 14:43:27;;;;;;;5.00;0.80;;;8.60;84.90;;;;;;4895844;29;20040;-79
2023/12/26 14:45:52;;;;;;;8.98;1.38;;;8.60;85.00;;;;;;4879844;29;20407;-79
2023/12/26 14:48:18;;;;;;;8.77;1.55;;;8.50;84.90;;;;;;4873184;29;20053;-80
2023/12/26 14:50:44;;;;;;;6.95;1.10;;;8.50;84.80;;;;;;4877529;29;20488;-80
2023/12/26 14:53:09;;;;;;;8.05;1.88;;;8.50;84.70;;;;;;4880939;29;20396;-79
2023/12/26 14:55:35;;;;;;;4.38;0.93;;;8.50;84.70;;;;;;4881056;29;20103;-79
2023/12/26 14:58:01;;;;;;;7.45;1.25;;;8.40;84.60;;;;;;4880688;29;20095;-80
2023/12/26 15:00:26;;;;;;;6.00;1.17;;;8.30;84.60;;;;;;4879140;29;20044;-80
2023/12/26 15:02:55;;;;;;;9.32;1.38;;;8.40;84.90;;;;;;4876681;29;20068;-80
2023/12/26 15:05:21;;;;;;;8.13;0.98;;;8.40;84.60;;;;;;4876925;29;20052;-79
2023/12/26 15:07:47;;;;;;;5.03;0.95;;;8.30;84.50;;;;;;4882062;29;20040;-80
2023/12/26 15:10:12;;;;;;;5.25;1.33;;;8.30;84.50;;;;;;4882295;29;20071;-79
2023/12/26 15:12:38;;;;;;;12.45;1.35;;;8.20;84.40;;;;;;4881484;29;20496;-79
2023/12/26 15:15:05;;;;;;;9.23;1.63;;;8.20;84.40;;;;;;4882623;29;20047;-79
2023/12/26 15:17:31;;;;;;;6.40;1.35;;;8.20;84.50;;;;;;4898563;29;20048;-80
2023/12/26 15:19:56;;;;;;;8.13;1.23;;;8.20;84.60;;;;;;4877148;29;20188;-79
2023/12/26 15:22:22;;;;;;;7.00;0.85;;;8.20;84.60;;;;;;4900376;29;20560;-79
2023/12/26 15:24:48;;;;;;;6.93;1.55;;;8.20;84.60;;;;;;4882506;29;20408;-78
2023/12/26 15:27:14;;;;;;;6.55;1.20;;;8.10;84.70;;;;;;4898928;29;20427;-78
2023/12/26 15:29:39;;;;;;;7.70;1.05;;;8.10;85.10;;;;;;4899344;29;20062;-78
2023/12/26 15:32:09;;;;;;;10.68;1.55;;;8.10;84.80;;;;;;4893089;29;20045;-78
2023/12/26 15:34:35;;;;;;;10.65;1.77;;;8.00;84.80;;;;;;4875742;29;20167;-78
2023/12/26 15:37:01;;;;;;;6.18;1.00;;;8.00;84.90;;;;;;4895679;29;20088;-78